Time;durP1;ratioP1;P1;durP2;ratioP2;P2;SDS_P1;SDS_P2;PMS_P1;PMS_P2;Temp;Humidity;BMP_temperature;BMP_pressure;BME280_temperature;BME280_humidity;BME280_pressure;Samples;Min_cycle;Max_cycle;Signal;HPM_P1;HPM_P2
2021/07/13 00:01:15;;;;;;;35.90;20.88;;;;;;;16.63;100.00;101200.66;5010881;28;20061;-73
2021/07/13 00:03:43;;;;;;;32.38;20.73;;;;;;;16.54;100.00;101190.38;5014960;28;20175;-76
2021/07/13 00:06:12;;;;;;;31.88;20.00;;;;;;;16.52;100.00;101190.44;5011069;28;20388;-73
2021/07/13 00:08:40;;;;;;;32.55;19.95;;;;;;;16.51;100.00;101193.22;5013928;28;20131;-75
2021/07/13 00:11:08;;;;;;;35.22;19.98;;;;;;;16.49;100.00;101212.16;5012473;28;20069;-75
2021/07/13 00:13:36;;;;;;;33.97;19.35;;;;;;;16.50;100.00;101210.31;5012039;28;20065;-73
2021/07/13 00:16:04;;;;;;;31.88;18.55;;;;;;;16.49;100.00;101220.22;5016408;28;20068;-75
2021/07/13 00:18:32;;;;;;;30.45;19.23;;;;;;;16.48;100.00;101220.31;5010132;28;20092;-71
2021/07/13 00:21:00;;;;;;;31.88;18.73;;;;;;;16.42;100.00;101225.06;5014704;28;20069;-75
2021/07/13 00:23:29;;;;;;;32.03;19.92;;;;;;;16.36;100.00;101222.69;5012139;28;20097;-72
2021/07/13 00:25:56;;;;;;;33.50;19.58;;;;;;;16.31;100.00;101213.06;5011674;28;20054;-71
2021/07/13 00:28:24;;;;;;;34.08;20.85;;;;;;;16.23;100.00;101208.94;5017340;28;20146;-75
2021/07/13 00:30:52;;;;;;;31.92;19.48;;;;;;;16.23;100.00;101214.34;5014128;28;20165;-75
2021/07/13 00:33:20;;;;;;;31.05;18.60;;;;;;;16.19;100.00;101218.13;5016347;28;20149;-72
2021/07/13 00:35:48;;;;;;;34.05;19.55;;;;;;;16.17;100.00;101211.94;5010834;28;21573;-76
2021/07/13 00:38:16;;;;;;;32.50;19.40;;;;;;;16.18;100.00;101212.81;5011245;28;20697;-76
2021/07/13 00:40:45;;;;;;;34.40;19.45;;;;;;;16.15;100.00;101204.91;5013733;28;20091;-71
2021/07/13 00:43:12;;;;;;;36.00;20.27;;;;;;;16.10;100.00;101201.56;5010122;28;20073;-71
2021/07/13 00:45:40;;;;;;;34.78;20.13;;;;;;;16.03;100.00;101207.25;5012963;28;20061;-71
2021/07/13 00:48:09;;;;;;;35.38;20.70;;;;;;;15.99;100.00;101200.28;5012487;28;20066;-75
2021/07/13 00:50:37;;;;;;;31.10;18.75;;;;;;;15.98;100.00;101220.03;5011698;28;20066;-74
2021/07/13 00:53:05;;;;;;;32.88;18.55;;;;;;;15.95;100.00;101224.72;5015473;28;20184;-75
2021/07/13 00:55:33;;;;;;;32.10;18.63;;;;;;;15.91;100.00;101218.59;5010182;28;20069;-75
2021/07/13 00:58:05;;;;;;;33.03;19.15;;;;;;;15.94;100.00;101220.28;5009964;28;20096;-75
2021/07/13 01:00:33;;;;;;;31.20;18.90;;;;;;;15.90;100.00;101221.38;5014178;28;20057;-75
2021/07/13 01:03:04;;;;;;;34.35;19.67;;;;;;;15.85;100.00;101226.97;5014007;28;20056;-71
2021/07/13 01:05:37;;;;;;;29.27;16.48;;;;;;;15.82;100.00;101229.81;5012457;28;20042;-72
2021/07/13 01:08:19;;;;;;;32.22;18.52;;;;;;;15.80;100.00;101226.31;5012297;28;20076;-72
2021/07/13 01:10:53;;;;;;;32.58;18.65;;;;;;;15.77;100.00;101221.09;5011271;28;20046;-76
2021/07/13 01:13:33;;;;;;;30.38;18.70;;;;;;;15.77;100.00;101221.97;5012210;28;20061;-71
2021/07/13 01:16:07;;;;;;;33.97;19.25;;;;;;;15.76;100.00;101230.97;5009805;28;20097;-71
2021/07/13 01:18:41;;;;;;;32.55;19.67;;;;;;;15.70;100.00;101217.78;5013475;28;20065;-71
2021/07/13 01:21:33;;;;;;;34.38;19.83;;;;;;;15.66;100.00;101219.75;5011482;28;20504;-71
2021/07/13 01:24:15;;;;;;;35.75;20.48;;;;;;;15.65;100.00;101214.44;5012893;28;20130;-71
2021/07/13 01:26:59;;;;;;;32.13;19.48;;;;;;;15.62;100.00;101217.28;5010475;28;20115;-71
2021/07/13 01:29:29;;;;;;;35.38;20.17;;;;;;;15.60;100.00;101217.34;5013164;28;20144;-71
2021/07/13 01:32:00;;;;;;;34.10;19.75;;;;;;;15.58;100.00;101218.34;5013561;28;20441;-72
2021/07/13 01:34:33;;;;;;;35.00;20.38;;;;;;;15.58;100.00;101219.25;5012334;28;20527;-72
2021/07/13 01:37:04;;;;;;;38.25;22.25;;;;;;;15.56;100.00;101218.44;5013857;28;20128;-75
2021/07/13 01:39:32;;;;;;;40.53;21.73;;;;;;;15.56;100.00;101215.75;5008888;28;20137;-72
2021/07/13 01:42:04;;;;;;;44.03;24.77;;;;;;;15.54;100.00;101206.88;5013992;28;20565;-76
2021/07/13 01:44:34;;;;;;;44.38;24.92;;;;;;;15.60;100.00;101208.41;5010947;28;20093;-76
2021/07/13 01:47:02;;;;;;;47.97;26.77;;;;;;;15.60;100.00;101213.81;5011593;28;20108;-76
2021/07/13 01:49:31;;;;;;;55.17;28.63;;;;;;;15.61;100.00;101216.41;5016700;28;20069;-76
2021/07/13 01:52:00;;;;;;;51.40;27.60;;;;;;;15.64;100.00;101210.00;5007288;28;20072;-76
2021/07/13 01:54:30;;;;;;;53.97;28.00;;;;;;;15.72;100.00;101210.53;5015019;28;20065;-76
2021/07/13 01:57:00;;;;;;;58.78;30.58;;;;;;;15.75;100.00;101213.09;5014473;28;20069;-77
2021/07/13 01:59:29;;;;;;;56.30;30.25;;;;;;;15.76;100.00;101213.97;5010875;28;20527;-77
2021/07/13 02:02:02;;;;;;;61.20;33.63;;;;;;;15.80;100.00;101221.81;5016215;28;20107;-72
2021/07/13 02:04:32;;;;;;;62.10;31.85;;;;;;;15.80;100.00;101219.13;5010885;28;20172;-72
2021/07/13 02:07:04;;;;;;;64.90;31.85;;;;;;;15.79;100.00;101214.69;5011950;28;20064;-77
2021/07/13 02:09:33;;;;;;;66.22;32.70;;;;;;;15.84;100.00;101215.34;5013585;28;20152;-76
2021/07/13 02:12:03;;;;;;;61.75;32.28;;;;;;;15.86;100.00;101220.66;5012769;28;20069;-72
2021/07/13 02:14:31;;;;;;;74.30;35.58;;;;;;;15.87;100.00;101219.72;5015996;28;20139;-77
2021/07/13 02:17:01;;;;;;;69.10;35.97;;;;;;;15.87;100.00;101220.56;5008200;28;20066;-77
2021/07/13 02:19:29;;;;;;;81.75;39.20;;;;;;;15.90;100.00;101216.00;5012972;28;20065;-72
2021/07/13 02:21:57;;;;;;;71.18;35.00;;;;;;;15.92;100.00;101214.09;5009013;28;20083;-72
2021/07/13 02:24:25;;;;;;;75.38;37.47;;;;;;;15.92;100.00;101209.59;5010457;28;20135;-72
2021/07/13 02:26:55;;;;;;;79.22;38.38;;;;;;;15.95;100.00;101206.72;5015732;28;20054;-72
2021/07/13 02:29:30;;;;;;;92.55;42.00;;;;;;;15.99;100.00;101205.66;5007233;28;20061;-73
2021/07/13 02:32:03;;;;;;;84.50;39.38;;;;;;;15.97;100.00;101206.66;5013055;28;20338;-72
2021/07/13 02:34:36;;;;;;;90.18;40.40;;;;;;;16.01;100.00;101202.88;5011685;28;20069;-78
2021/07/13 02:37:06;;;;;;;88.32;41.10;;;;;;;16.07;100.00;101202.56;5009176;28;20123;-78
2021/07/13 02:39:36;;;;;;;79.28;37.42;;;;;;;16.11;100.00;101201.50;5012664;28;20066;-77
2021/07/13 02:42:06;;;;;;;92.95;43.25;;;;;;;16.20;100.00;101194.78;5010624;28;20069;-76
2021/07/13 02:44:35;;;;;;;104.90;44.63;;;;;;;16.29;100.00;101196.13;5010984;28;20072;-72
2021/07/13 02:47:09;;;;;;;107.30;45.53;;;;;;;16.34;100.00;101194.94;5015409;28;20122;-76
2021/07/13 02:49:44;;;;;;;113.55;46.40;;;;;;;16.39;100.00;101187.50;5013574;28;20073;-76
2021/07/13 02:52:13;;;;;;;98.90;44.88;;;;;;;16.44;100.00;101193.53;5019126;28;20100;-76
2021/07/13 02:54:42;;;;;;;97.63;42.83;;;;;;;16.48;100.00;101187.97;5008853;28;20220;-77
2021/07/13 02:57:11;;;;;;;118.25;48.85;;;;;;;16.57;100.00;101190.22;5017692;28;20069;-76
2021/07/13 02:59:41;;;;;;;101.60;43.08;;;;;;;16.62;100.00;101193.53;5018296;28;22571;-76
2021/07/13 03:02:13;;;;;;;106.82;45.40;;;;;;;16.69;100.00;101191.41;5012519;28;20073;-76
2021/07/13 03:04:43;;;;;;;115.28;49.15;;;;;;;16.77;100.00;101198.13;5017577;28;20068;-76
2021/07/13 03:07:11;;;;;;;113.60;47.85;;;;;;;16.79;100.00;101195.38;5013317;28;20069;-72
2021/07/13 03:09:47;;;;;;;112.65;48.35;;;;;;;16.85;100.00;101200.44;5015895;28;20072;-72
2021/07/13 03:12:16;;;;;;;127.47;51.58;;;;;;;16.91;100.00;101191.19;5013885;28;20090;-77
2021/07/13 03:14:45;;;;;;;132.60;53.03;;;;;;;17.03;100.00;101190.53;5011527;28;20061;-78
2021/07/13 03:17:17;;;;;;;138.90;52.25;;;;;;;17.12;100.00;101192.72;5017908;28;20148;-78
2021/07/13 03:19:46;;;;;;;134.43;54.25;;;;;;;17.19;100.00;101193.25;5013316;28;20247;-78
2021/07/13 03:22:18;;;;;;;143.30;52.20;;;;;;;17.25;100.00;101187.53;5015185;28;20145;-72
2021/07/13 03:24:48;;;;;;;149.45;56.65;;;;;;;17.30;100.00;101181.91;5017304;28;20065;-72
2021/07/13 03:27:17;;;;;;;160.35;59.75;;;;;;;17.36;100.00;101186.94;5013146;28;20068;-72
2021/07/13 03:29:46;;;;;;;161.80;56.88;;;;;;;17.38;100.00;101185.03;5018496;28;20127;-72
2021/07/13 03:32:17;;;;;;;157.13;58.67;;;;;;;17.41;100.00;101186.69;5012056;28;20123;-77
2021/07/13 03:34:46;;;;;;;159.13;56.20;;;;;;;17.43;100.00;101188.34;5014102;28;20378;-72
2021/07/13 03:37:15;;;;;;;147.05;55.85;;;;;;;17.44;100.00;101194.63;5017519;28;20070;-76
2021/07/13 03:39:44;;;;;;;161.45;59.90;;;;;;;17.48;100.00;101197.03;5013117;28;20152;-72
2021/07/13 03:42:12;;;;;;;163.93;60.67;;;;;;;17.47;100.00;101200.72;5017971;28;20057;-72
2021/07/13 03:44:41;;;;;;;164.82;57.42;;;;;;;17.50;100.00;101197.84;5013487;28;20072;-76
2021/07/13 03:47:11;;;;;;;167.45;62.22;;;;;;;17.50;100.00;101199.66;5014942;28;20061;-76
2021/07/13 03:49:42;;;;;;;151.93;58.70;;;;;;;17.51;100.00;101198.72;5014566;28;20128;-71
2021/07/13 03:52:14;;;;;;;159.35;57.22;;;;;;;17.49;100.00;101195.25;5013302;28;20348;-76
2021/07/13 03:54:42;;;;;;;159.82;60.95;;;;;;;17.51;100.00;101199.56;5016474;28;20065;-75
2021/07/13 03:57:10;;;;;;;168.55;59.83;;;;;;;17.50;100.00;101186.16;5013426;28;20112;-71
2021/07/13 03:59:42;;;;;;;173.50;62.83;;;;;;;17.52;100.00;101195.03;5014088;28;20421;-71
2021/07/13 04:02:09;;;;;;;156.43;58.10;;;;;;;17.52;100.00;101197.75;5024002;28;20069;-72
2021/07/13 04:04:38;;;;;;;160.40;57.80;;;;;;;17.52;100.00;101201.34;5011807;28;20124;-71
2021/07/13 04:07:07;;;;;;;155.65;59.05;;;;;;;17.54;100.00;101201.25;5012904;28;20076;-72
2021/07/13 04:09:36;;;;;;;151.30;58.08;;;;;;;17.55;100.00;101197.56;5013334;28;20049;-72
2021/07/13 04:12:04;;;;;;;151.20;58.75;;;;;;;17.58;100.00;101193.84;5010823;28;20049;-71
2021/07/13 04:14:32;;;;;;;151.25;57.67;;;;;;;17.56;100.00;101199.34;5016165;28;20148;-75
2021/07/13 04:17:00;;;;;;;150.38;58.95;;;;;;;17.59;100.00;101196.47;5009985;28;20072;-75
2021/07/13 04:19:28;;;;;;;139.98;55.47;;;;;;;17.56;100.00;101204.72;5015534;28;20066;-72
2021/07/13 04:21:56;;;;;;;141.20;57.80;;;;;;;17.57;100.00;101208.28;5020956;28;20108;-71
2021/07/13 04:24:25;;;;;;;141.73;57.55;;;;;;;17.59;100.00;101209.06;5011002;28;20211;-75
2021/07/13 04:26:53;;;;;;;153.13;61.10;;;;;;;17.58;100.00;101210.03;5016739;28;20667;-71
2021/07/13 04:29:21;;;;;;;146.45;60.08;;;;;;;17.60;100.00;101213.50;5012540;28;20420;-75
2021/07/13 04:31:49;;;;;;;143.23;57.65;;;;;;;17.62;100.00;101222.38;5014621;28;20788;-72
2021/07/13 04:34:18;;;;;;;148.27;56.70;;;;;;;17.64;100.00;101228.56;5014944;28;20076;-72
2021/07/13 04:36:46;;;;;;;145.20;58.95;;;;;;;17.64;100.00;101226.75;5013259;28;20089;-71
2021/07/13 04:39:13;;;;;;;143.80;57.42;;;;;;;17.69;100.00;101224.69;5015457;28;20050;-71
2021/07/13 04:41:42;;;;;;;137.38;55.90;;;;;;;17.73;100.00;101226.22;5009797;28;20081;-71
2021/07/13 04:44:10;;;;;;;140.70;54.50;;;;;;;17.79;100.00;101227.72;5013356;28;20103;-71
2021/07/13 04:46:38;;;;;;;135.50;57.15;;;;;;;17.81;100.00;101220.41;5014024;28;20069;-71
2021/07/13 04:49:06;;;;;;;137.10;55.58;;;;;;;17.88;100.00;101229.94;5010230;28;20425;-71
2021/07/13 04:51:33;;;;;;;123.82;50.40;;;;;;;17.91;100.00;101232.47;5016387;28;20088;-71
2021/07/13 04:54:01;;;;;;;130.75;54.80;;;;;;;17.92;100.00;101230.63;5010911;28;20103;-75
2021/07/13 04:56:29;;;;;;;112.75;48.70;;;;;;;17.97;100.00;101230.38;5014587;28;20114;-74
2021/07/13 04:59:01;;;;;;;120.50;50.88;;;;;;;18.02;100.00;101234.53;5013756;28;20108;-71
2021/07/13 05:01:29;;;;;;;120.13;50.60;;;;;;;18.04;100.00;101231.75;5011738;28;20104;-71
2021/07/13 05:03:57;;;;;;;108.10;49.65;;;;;;;18.07;100.00;101226.19;5015777;28;20208;-74
2021/07/13 05:06:25;;;;;;;107.63;46.03;;;;;;;18.09;100.00;101229.66;5011207;28;20064;-70
2021/07/13 05:08:53;;;;;;;103.10;44.35;;;;;;;18.09;100.00;101222.44;5009638;28;20070;-74
2021/07/13 05:11:20;;;;;;;96.45;44.63;;;;;;;18.11;100.00;101227.75;5017105;28;20119;-73
2021/07/13 05:13:49;;;;;;;103.38;47.13;;;;;;;18.14;100.00;101240.22;5007452;28;20368;-70
2021/07/13 05:16:18;;;;;;;107.82;47.75;;;;;;;18.10;100.00;101239.53;5013379;28;20383;-74
2021/07/13 05:18:46;;;;;;;107.53;46.45;;;;;;;18.17;100.00;101242.75;5012010;28;20072;-70
2021/07/13 05:21:13;;;;;;;105.88;48.00;;;;;;;18.15;100.00;101253.63;5013152;28;20120;-73
2021/07/13 05:23:41;;;;;;;116.18;49.70;;;;;;;18.13;100.00;101255.53;5017183;28;20076;-74
2021/07/13 05:26:09;;;;;;;109.80;46.60;;;;;;;18.10;100.00;101248.50;5012224;28;20144;-75
2021/07/13 05:28:37;;;;;;;101.93;47.33;;;;;;;18.08;100.00;101249.50;5019894;28;20201;-70
2021/07/13 05:31:05;;;;;;;112.10;48.28;;;;;;;18.07;100.00;101250.50;5011531;28;20070;-70
2021/07/13 05:33:34;;;;;;;115.38;49.72;;;;;;;18.08;100.00;101253.13;5013904;28;20069;-74
2021/07/13 05:36:02;;;;;;;106.90;45.80;;;;;;;18.09;100.00;101249.44;5013959;28;20066;-70
2021/07/13 05:38:30;;;;;;;100.32;43.95;;;;;;;18.11;100.00;101249.34;5009642;28;20058;-70
2021/07/13 05:40:58;;;;;;;99.25;45.92;;;;;;;18.10;100.00;101251.19;5012972;28;20066;-70
2021/07/13 05:43:26;;;;;;;101.50;46.40;;;;;;;18.15;100.00;101252.75;5016749;28;20191;-70
2021/07/13 05:45:53;;;;;;;95.57;42.30;;;;;;;18.20;100.00;101253.34;5008832;28;20072;-70
2021/07/13 05:48:21;;;;;;;95.00;43.47;;;;;;;18.18;100.00;101247.16;5015456;28;20069;-70
2021/07/13 05:50:50;;;;;;;92.00;41.38;;;;;;;18.19;100.00;101252.47;5009576;28;20073;-74
2021/07/13 05:53:19;;;;;;;92.22;41.03;;;;;;;18.23;100.00;101248.63;5011195;28;20062;-73
2021/07/13 05:55:47;;;;;;;89.28;41.95;;;;;;;18.19;100.00;101249.78;5015048;28;20417;-74
2021/07/13 05:58:19;;;;;;;92.03;41.83;;;;;;;18.20;100.00;101242.53;5004698;28;20128;-73
2021/07/13 06:00:52;;;;;;;93.43;43.30;;;;;;;18.12;100.00;101251.09;5014136;28;20104;-73
2021/07/13 06:03:20;;;;;;;99.20;43.67;;;;;;;18.09;100.00;101252.13;5006920;28;20372;-71
2021/07/13 06:05:47;;;;;;;94.78;43.30;;;;;;;18.08;100.00;101254.91;5009347;28;20061;-74
2021/07/13 06:08:17;;;;;;;95.72;42.85;;;;;;;18.05;100.00;101249.72;5012437;28;20058;-73
2021/07/13 06:10:45;;;;;;;95.07;43.58;;;;;;;18.15;100.00;101250.03;5009924;28;20290;-70
2021/07/13 06:13:12;;;;;;;92.25;44.38;;;;;;;18.15;100.00;101252.75;5012079;28;20061;-70
2021/07/13 06:15:40;;;;;;;94.43;42.35;;;;;;;18.23;100.00;101247.78;5010798;28;20337;-70
2021/07/13 06:18:08;;;;;;;99.80;43.70;;;;;;;18.32;100.00;101251.78;5011064;28;20320;-73
2021/07/13 06:20:37;;;;;;;104.40;43.65;;;;;;;18.39;100.00;101253.16;5013243;28;20045;-73
2021/07/13 06:23:06;;;;;;;95.25;42.85;;;;;;;18.47;100.00;101251.75;5010218;28;20041;-73
2021/07/13 06:25:36;;;;;;;85.32;40.03;;;;;;;18.57;100.00;101257.47;5017944;28;20058;-74
2021/07/13 06:28:04;;;;;;;93.93;42.63;;;;;;;18.59;100.00;101252.88;5010506;28;20066;-70
2021/07/13 06:30:34;;;;;;;87.22;38.13;;;;;;;18.54;100.00;101256.78;5012911;28;20127;-73
2021/07/13 06:33:02;;;;;;;90.30;41.00;;;;;;;18.63;100.00;101257.13;5014812;28;20112;-69
2021/07/13 06:35:30;;;;;;;86.78;40.03;;;;;;;18.67;100.00;101258.66;5009921;28;20099;-73
2021/07/13 06:37:59;;;;;;;84.15;38.90;;;;;;;18.65;100.00;101266.00;5018187;28;20333;-73
2021/07/13 06:40:27;;;;;;;91.05;40.22;;;;;;;18.61;100.00;101269.88;5013930;28;20464;-69
2021/07/13 06:42:56;;;;;;;86.57;39.30;;;;;;;18.48;100.00;101260.72;5012717;28;20084;-69
2021/07/13 06:45:24;;;;;;;85.03;41.85;;;;;;;18.49;100.00;101257.06;5009518;28;20457;-69
2021/07/13 06:47:54;;;;;;;89.57;40.25;;;;;;;18.41;100.00;101264.75;5011997;28;20399;-70
2021/07/13 06:50:23;;;;;;;84.75;40.92;;;;;;;18.40;100.00;101263.88;5015408;28;20081;-74
2021/07/13 06:52:51;;;;;;;87.80;40.90;;;;;;;18.34;100.00;101275.03;5021061;28;20046;-70
2021/07/13 06:55:19;;;;;;;84.28;39.78;;;;;;;18.42;100.00;101272.78;5010870;28;20065;-74
2021/07/13 06:57:47;;;;;;;77.05;38.70;;;;;;;18.41;99.50;101275.56;5018793;28;20307;-71
2021/07/13 07:00:17;;;;;;;74.55;36.17;;;;;;;18.53;98.99;101268.56;5012626;28;20056;-74
2021/07/13 07:02:45;;;;;;;74.07;38.47;;;;;;;18.55;99.01;101269.34;5015271;28;20343;-71
2021/07/13 07:05:16;;;;;;;76.93;37.63;;;;;;;18.58;98.68;101275.44;5012463;28;20188;-72
2021/07/13 07:07:45;;;;;;;75.82;37.35;;;;;;;18.62;98.35;101271.59;5014222;28;20045;-71
2021/07/13 07:10:14;;;;;;;74.13;35.35;;;;;;;18.59;98.35;101279.00;5014991;28;20072;-71
2021/07/13 07:12:43;;;;;;;69.72;34.47;;;;;;;18.52;98.29;101274.94;5011161;28;20068;-73
2021/07/13 07:15:12;;;;;;;78.20;36.42;;;;;;;18.56;97.70;101279.19;5013823;28;20341;-71
2021/07/13 07:17:45;;;;;;;71.70;34.38;;;;;;;18.56;97.69;101282.78;5018436;28;20068;-73
2021/07/13 07:20:15;;;;;;;69.45;34.47;;;;;;;18.73;97.50;101280.88;5009946;28;20220;-70
2021/07/13 07:22:43;;;;;;;73.55;35.50;;;;;;;18.79;97.30;101281.41;5017994;28;20567;-69
2021/07/13 07:25:12;;;;;;;75.70;36.88;;;;;;;18.82;97.44;101286.66;5011037;28;20064;-70
2021/07/13 07:27:40;;;;;;;68.50;34.67;;;;;;;18.91;97.39;101284.38;5011053;28;20053;-70
2021/07/13 07:30:11;;;;;;;79.28;36.78;;;;;;;18.91;96.33;101285.22;5017581;28;20317;-73
2021/07/13 07:32:40;;;;;;;76.55;36.08;;;;;;;18.88;96.14;101284.56;5012094;28;20065;-70
2021/07/13 07:35:11;;;;;;;76.47;38.10;;;;;;;18.78;96.38;101286.88;5019295;28;20061;-73
2021/07/13 07:37:41;;;;;;;75.32;38.05;;;;;;;18.69;96.50;101282.91;5015740;28;20038;-71
2021/07/13 07:40:17;;;;;;;79.60;38.38;;;;;;;18.69;96.97;101285.59;5016712;28;20113;-75
2021/07/13 07:42:46;;;;;;;74.97;38.28;;;;;;;18.69;97.53;101295.56;5020283;28;20066;-75
2021/07/13 07:45:15;;;;;;;92.43;42.25;;;;;;;18.42;98.89;101294.38;5017845;28;20159;-75
2021/07/13 07:47:43;;;;;;;86.72;42.08;;;;;;;18.56;98.95;101292.69;5017971;28;20377;-74
2021/07/13 07:50:14;;;;;;;90.45;41.28;;;;;;;18.63;98.07;101300.38;5016775;28;20335;-71
2021/07/13 07:52:42;;;;;;;91.10;40.85;;;;;;;18.56;98.43;101298.09;5015312;28;20080;-74
2021/07/13 07:55:12;;;;;;;85.63;39.33;;;;;;;18.46;98.60;101304.03;5018962;28;20463;-74
2021/07/13 07:57:40;;;;;;;90.95;40.70;;;;;;;18.52;98.23;101304.66;5012929;28;20065;-74
2021/07/13 08:00:11;;;;;;;85.10;40.15;;;;;;;18.60;97.27;101303.25;5020296;28;20490;-74
2021/07/13 08:02:39;;;;;;;87.55;38.55;;;;;;;18.57;97.15;101303.41;5013017;28;20048;-74
2021/07/13 08:05:08;;;;;;;77.93;39.35;;;;;;;18.58;96.47;101301.59;5016046;28;20477;-71
2021/07/13 08:07:37;;;;;;;89.00;39.20;;;;;;;18.69;96.24;101303.66;5018379;28;20061;-74
2021/07/13 08:10:07;;;;;;;78.82;36.97;;;;;;;18.78;96.01;101300.41;5012379;28;20065;-74
2021/07/13 08:12:35;;;;;;;81.20;40.13;;;;;;;18.67;96.37;101298.34;5018724;28;20499;-75
2021/07/13 08:15:04;;;;;;;92.15;40.80;;;;;;;18.59;97.28;101303.31;5012357;28;20377;-75
2021/07/13 08:17:32;;;;;;;98.45;42.35;;;;;;;18.56;97.38;101311.59;5015566;28;20100;-76
2021/07/13 08:19:59;;;;;;;95.45;44.85;;;;;;;18.52;97.15;101304.66;5020527;28;20062;-75
2021/07/13 08:22:29;;;;;;;101.35;45.65;;;;;;;18.47;97.62;101308.50;5011752;28;21226;-74
2021/07/13 08:24:59;;;;;;;104.53;43.25;;;;;;;18.44;97.37;101307.81;5021916;28;20053;-70
2021/07/13 08:27:28;;;;;;;91.10;42.28;;;;;;;18.42;97.46;101317.81;5014799;28;20409;-70
2021/07/13 08:29:55;;;;;;;93.53;43.75;;;;;;;18.41;97.67;101306.16;5014921;28;20046;-74
2021/07/13 08:32:23;;;;;;;97.53;41.63;;;;;;;18.51;97.33;101311.91;5020203;28;20069;-70
2021/07/13 08:34:52;;;;;;;89.38;41.55;;;;;;;18.53;96.79;101307.25;5012973;28;20507;-71
2021/07/13 08:37:21;;;;;;;90.40;40.67;;;;;;;18.54;96.21;101295.50;5017216;28;20430;-73
2021/07/13 08:39:49;;;;;;;82.55;38.17;;;;;;;18.46;96.12;101301.34;5016064;28;20393;-74
2021/07/13 08:42:18;;;;;;;89.10;43.28;;;;;;;18.51;96.05;101305.59;5014734;28;20073;-76
2021/07/13 08:44:46;;;;;;;73.93;38.35;;;;;;;18.51;96.67;101303.78;5014670;28;20062;-74
2021/07/13 08:47:16;;;;;;;87.18;39.70;;;;;;;18.61;96.73;101299.59;5010903;28;20083;-75
2021/07/13 08:49:44;;;;;;;83.28;38.83;;;;;;;18.64;96.29;101302.13;5016740;28;20435;-74
2021/07/13 08:52:13;;;;;;;73.60;37.00;;;;;;;18.82;95.52;101310.09;5015530;28;20550;-74
2021/07/13 08:54:41;;;;;;;81.28;37.97;;;;;;;18.92;94.98;101308.63;5012070;28;20283;-75
2021/07/13 08:57:11;;;;;;;75.70;37.70;;;;;;;19.02;94.30;101306.25;5014711;28;20100;-74
2021/07/13 08:59:40;;;;;;;80.47;38.05;;;;;;;19.10;93.80;101303.06;5008641;28;20049;-75
2021/07/13 09:02:08;;;;;;;80.57;36.50;;;;;;;19.20;92.87;101309.66;5017371;28;20166;-70
2021/07/13 09:04:40;;;;;;;81.35;36.63;;;;;;;19.34;92.95;101304.28;5011446;28;20061;-75
2021/07/13 09:07:09;;;;;;;73.18;35.60;;;;;;;19.48;92.07;101306.13;5012323;28;20539;-74
2021/07/13 09:09:39;;;;;;;77.25;36.63;;;;;;;19.15;92.53;101301.81;5014662;28;20874;-74
2021/07/13 09:12:15;;;;;;;70.18;34.53;;;;;;;19.16;92.66;101310.81;5012678;28;20065;-74
2021/07/13 09:14:49;;;;;;;70.85;34.17;;;;;;;19.11;93.23;101304.81;5015603;28;20057;-70
2021/07/13 09:17:36;;;;;;;72.93;37.22;;;;;;;19.08;93.55;101313.97;5010496;28;20068;-74
2021/07/13 09:20:21;;;;;;;76.18;34.22;;;;;;;19.10;92.76;101309.31;5012640;28;20139;-69
2021/07/13 09:22:54;;;;;;;76.72;36.10;;;;;;;19.12;92.35;101311.94;5014898;28;20208;-69
2021/07/13 09:25:25;;;;;;;69.07;35.88;;;;;;;19.02;92.69;101312.50;5012141;28;20141;-69
2021/07/13 09:28:07;;;;;;;69.63;34.97;;;;;;;19.25;92.64;101303.97;5015980;28;20124;-70
2021/07/13 09:30:37;;;;;;;75.75;36.88;;;;;;;19.06;93.40;101306.91;5010913;28;20344;-73
2021/07/13 09:33:14;;;;;;;72.38;35.80;;;;;;;18.93;93.72;101313.03;5012682;28;20065;-70
2021/07/13 09:36:08;;;;;;;74.93;34.90;;;;;;;18.99;93.36;101307.28;5009383;28;20444;-75
2021/07/13 09:38:39;;;;;;;76.57;37.78;;;;;;;19.00;92.29;101314.44;5007717;28;20155;-74
2021/07/13 09:41:10;;;;;;;69.85;35.17;;;;;;;19.29;92.13;101311.81;5014480;28;20066;-74
2021/07/13 09:43:43;;;;;;;72.13;34.90;;;;;;;19.38;91.62;101304.94;5007297;28;20058;-74
2021/07/13 09:46:29;;;;;;;72.85;35.28;;;;;;;19.56;90.51;101308.34;5009490;28;20143;-73
2021/07/13 09:49:20;;;;;;;69.32;34.60;;;;;;;19.77;89.96;101306.16;5010429;28;20100;-74
2021/07/13 09:51:55;;;;;;;58.97;30.73;;;;;;;19.85;88.98;101309.22;5006765;28;20057;-73
2021/07/13 09:54:34;;;;;;;65.32;33.85;;;;;;;19.57;89.72;101305.53;5010564;28;20065;-69
2021/07/13 09:57:04;;;;;;;72.55;36.40;;;;;;;19.55;89.75;101312.03;5010321;28;20061;-73
2021/07/13 09:59:33;;;;;;;68.45;35.78;;;;;;;19.46;89.85;101308.06;5010746;28;20069;-74
2021/07/13 10:02:04;;;;;;;64.13;31.75;;;;;;;19.57;89.47;101300.13;5006042;28;20047;-74
2021/07/13 10:04:33;;;;;;;70.95;35.67;;;;;;;19.57;89.08;101305.53;5007287;28;20054;-74
2021/07/13 10:07:07;;;;;;;67.03;33.85;;;;;;;19.75;89.38;101310.78;5014600;28;20391;-70
2021/07/13 10:09:38;;;;;;;63.83;34.13;;;;;;;19.60;88.38;101310.75;5011665;28;20061;-73
2021/07/13 10:12:14;;;;;;;69.95;34.20;;;;;;;19.69;88.35;101317.44;5009734;28;20062;-74
2021/07/13 10:14:43;;;;;;;65.00;33.92;;;;;;;19.57;88.37;101318.22;5011397;28;20057;-74
2021/07/13 10:17:13;;;;;;;69.30;35.17;;;;;;;19.59;88.59;101313.56;5011163;28;20108;-74
2021/07/13 10:19:46;;;;;;;70.80;34.85;;;;;;;19.58;88.77;101318.13;5018307;28;20174;-74
2021/07/13 10:22:15;;;;;;;71.32;35.60;;;;;;;19.45;89.46;101321.69;5011729;28;20058;-71
2021/07/13 10:24:44;;;;;;;62.78;33.17;;;;;;;19.90;89.04;101323.38;5012306;28;20073;-74
2021/07/13 10:27:16;;;;;;;62.15;32.30;;;;;;;19.82;87.65;101322.09;5008948;28;20062;-71
2021/07/13 10:29:45;;;;;;;62.50;32.90;;;;;;;19.67;87.75;101322.06;5008152;28;20096;-72
2021/07/13 10:32:39;;;;;;;64.75;34.38;;;;;;;19.46;88.27;101328.81;5015944;28;20438;-72
2021/07/13 10:35:25;;;;;;;61.70;31.88;;;;;;;19.89;88.00;101326.19;5005886;28;20072;-72
2021/07/13 10:37:54;;;;;;;69.72;36.25;;;;;;;19.67;87.18;101323.94;5011148;28;20424;-70
2021/07/13 10:40:40;;;;;;;65.63;33.55;;;;;;;19.85;87.03;101327.31;5009780;28;20088;-73
2021/07/13 10:43:17;;;;;;;65.43;31.48;;;;;;;19.74;86.57;101314.44;5012515;28;20068;-70
2021/07/13 10:45:46;;;;;;;70.03;33.20;;;;;;;19.65;86.62;101328.53;5011184;28;20092;-70
2021/07/13 10:48:19;;;;;;;62.85;32.22;;;;;;;19.68;86.88;101329.25;5006050;28;20392;-70
2021/07/13 10:50:53;;;;;;;75.50;33.10;;;;;;;19.90;86.33;101334.22;5010201;28;20137;-72
2021/07/13 10:53:24;;;;;;;64.82;31.40;;;;;;;19.62;86.77;101345.84;5009220;28;20061;-73
2021/07/13 10:56:11;;;;;;;67.45;32.30;;;;;;;19.85;86.49;101340.88;5009454;28;20457;-73
2021/07/13 10:58:45;;;;;;;57.75;30.02;;;;;;;19.92;86.54;101344.91;5009446;28;20144;-75
2021/07/13 11:01:15;;;;;;;55.38;30.02;;;;;;;19.67;86.21;101353.69;5009684;28;20531;-73
2021/07/13 11:04:03;;;;;;;62.28;30.38;;;;;;;19.73;86.67;101356.00;5012185;28;20061;-70
2021/07/13 11:06:57;;;;;;;63.05;31.27;;;;;;;19.62;86.28;101358.53;5002675;28;20066;-70
2021/07/13 11:09:30;;;;;;;58.80;30.27;;;;;;;19.54;86.60;101356.28;5020368;28;20093;-70
2021/07/13 11:12:16;;;;;;;58.40;30.35;;;;;;;19.61;85.88;101354.94;5012221;28;20073;-70
2021/07/13 11:14:52;;;;;;;55.03;28.30;;;;;;;19.74;86.54;101358.66;5014819;28;20310;-70
2021/07/13 11:17:22;;;;;;;62.20;29.02;;;;;;;19.56;86.46;101357.94;5016374;28;20053;-75